createdAt,value
2023-05-19T00:00:23.215Z,0.00
2023-05-19T00:01:25.650Z,0.00
2023-05-19T00:02:24.747Z,0.00
2023-05-19T00:03:23.238Z,0.00
2023-05-19T00:04:23.200Z,0.00
2023-05-19T00:05:23.210Z,0.00
2023-05-19T00:06:23.341Z,0.00
2023-05-19T00:07:24.131Z,0.00
2023-05-19T00:08:23.634Z,0.00
2023-05-19T00:09:23.132Z,0.00
2023-05-19T00:10:23.154Z,0.00
2023-05-19T00:11:23.280Z,0.00
2023-05-19T00:12:23.128Z,0.00
2023-05-19T00:13:23.079Z,0.00
2023-05-19T00:14:23.810Z,0.00
2023-05-19T00:15:24.156Z,0.00
2023-05-19T00:16:23.196Z,0.00
2023-05-19T00:17:23.121Z,0.00
2023-05-19T00:18:23.053Z,0.00
2023-05-19T00:19:23.140Z,0.00
2023-05-19T00:20:24.374Z,0.00
2023-05-19T00:21:23.649Z,0.00
2023-05-19T00:22:22.986Z,0.00
2023-05-19T00:23:22.990Z,0.00
2023-05-19T00:24:22.989Z,0.00
2023-05-19T00:25:23.022Z,0.00
2023-05-19T00:26:22.989Z,0.00
2023-05-19T00:27:23.689Z,0.00
2023-05-19T00:28:22.980Z,0.00
2023-05-19T00:29:22.928Z,0.00
2023-05-19T00:30:22.970Z,0.00
2023-05-19T00:31:22.981Z,0.00
2023-05-19T00:32:22.916Z,0.00
2023-05-19T00:33:24.137Z,0.00
2023-05-19T00:34:23.670Z,0.00
2023-05-19T00:35:22.849Z,0.00
2023-05-19T00:36:22.851Z,0.00
2023-05-19T00:37:22.837Z,0.00
2023-05-19T00:38:22.934Z,0.00
2023-05-19T00:39:22.898Z,0.00
2023-05-19T00:40:22.839Z,0.00
2023-05-19T00:41:22.806Z,0.00
2023-05-19T00:42:22.790Z,0.00
2023-05-19T00:43:23.289Z,0.00
2023-05-19T00:44:22.800Z,0.00
2023-05-19T00:45:22.744Z,0.00
2023-05-19T00:46:24.165Z,0.00
2023-05-19T00:47:22.905Z,0.00
2023-05-19T00:48:22.728Z,0.00
2023-05-19T00:49:22.707Z,0.00
2023-05-19T00:50:22.716Z,0.00
2023-05-19T00:51:22.695Z,0.00
2023-05-19T00:52:23.669Z,0.00
2023-05-19T00:53:22.682Z,0.00
2023-05-19T00:54:22.708Z,0.00
2023-05-19T00:55:22.708Z,0.00
2023-05-19T00:56:22.682Z,0.00
2023-05-19T00:57:22.657Z,0.00
2023-05-19T00:58:22.625Z,0.00
2023-05-19T00:59:23.757Z,0.00
2023-05-19T01:00:23.157Z,0.00
2023-05-19T01:01:22.647Z,0.00
2023-05-19T01:02:22.665Z,0.00
2023-05-19T01:03:22.680Z,0.00
2023-05-19T01:04:22.545Z,0.00
2023-05-19T01:05:23.148Z,0.00
2023-05-19T01:06:22.530Z,0.00
2023-05-19T01:07:22.540Z,0.00
2023-05-19T01:08:22.567Z,0.00
2023-05-19T01:09:22.536Z,0.00
2023-05-19T01:10:22.496Z,0.00
2023-05-19T01:11:22.480Z,0.00
2023-05-19T01:12:23.649Z,0.00
2023-05-19T01:13:22.466Z,0.00
2023-05-19T01:14:22.444Z,0.00
2023-05-19T01:15:22.435Z,0.00
2023-05-19T01:16:22.548Z,0.00
2023-05-19T01:17:22.483Z,0.00
2023-05-19T01:18:23.159Z,0.00
2023-05-19T01:19:22.515Z,0.00
2023-05-19T01:20:22.397Z,0.00
2023-05-19T01:21:23.187Z,0.00
2023-05-19T01:22:22.410Z,0.00
2023-05-19T01:23:22.361Z,0.00
2023-05-19T01:24:22.348Z,0.00
2023-05-19T01:25:23.241Z,0.00
2023-05-19T01:26:22.337Z,0.00
2023-05-19T01:27:22.317Z,0.00
2023-05-19T01:28:22.299Z,0.00
2023-05-19T01:29:22.317Z,0.00
2023-05-19T01:30:22.319Z,0.00
2023-05-19T01:31:22.406Z,0.00
2023-05-19T01:32:22.339Z,0.00
2023-05-19T01:33:22.252Z,0.00
2023-05-19T01:34:24.696Z,0.00
2023-05-19T01:35:22.343Z,0.00
2023-05-19T01:36:22.241Z,0.00
2023-05-19T01:37:22.230Z,0.00
2023-05-19T01:38:22.265Z,0.00
2023-05-19T01:39:22.182Z,0.00
2023-05-19T01:40:22.207Z,0.00
2023-05-19T01:41:22.187Z,0.00
2023-05-19T01:42:22.193Z,0.00
2023-05-19T01:43:22.182Z,0.00
2023-05-19T01:44:22.155Z,0.00
2023-05-19T01:45:22.148Z,0.00
2023-05-19T01:46:22.220Z,0.00
2023-05-19T01:47:24.287Z,0.00
2023-05-19T01:48:25.195Z,0.00
2023-05-19T01:49:22.148Z,0.00
2023-05-19T01:50:22.171Z,0.00
2023-05-19T01:51:22.140Z,0.00
2023-05-19T01:52:22.042Z,0.00
2023-05-19T01:53:22.066Z,0.00
2023-05-19T01:54:22.064Z,0.00
2023-05-19T01:55:22.027Z,0.00
2023-05-19T01:56:21.997Z,0.00
2023-05-19T01:57:22.015Z,0.00
2023-05-19T01:58:21.996Z,0.00
2023-05-19T01:59:21.987Z,0.00
2023-05-19T02:00:24.176Z,0.00
2023-05-19T02:01:22.014Z,0.00
2023-05-19T02:02:21.958Z,0.00
2023-05-19T02:03:21.967Z,0.00
2023-05-19T02:04:21.923Z,0.00
2023-05-19T02:05:22.018Z,0.00
2023-05-19T02:06:21.981Z,0.00
2023-05-19T02:07:22.807Z,0.00
2023-05-19T02:08:21.896Z,0.00
2023-05-19T02:09:21.878Z,0.00
2023-05-19T02:10:21.869Z,0.00
2023-05-19T02:11:21.860Z,0.00
2023-05-19T02:12:21.865Z,0.00
2023-05-19T02:13:24.180Z,0.00
2023-05-19T02:14:21.837Z,0.00
2023-05-19T02:15:21.801Z,0.00
2023-05-19T02:16:21.944Z,0.00
2023-05-19T02:17:21.815Z,0.00
2023-05-19T02:18:24.174Z,0.00
2023-05-19T02:19:21.869Z,0.00
2023-05-19T02:20:21.770Z,0.00
2023-05-19T02:21:21.754Z,0.00
2023-05-19T02:22:21.762Z,0.00
2023-05-19T02:23:21.782Z,0.00
2023-05-19T02:24:21.702Z,0.00
2023-05-19T02:25:21.694Z,0.00
2023-05-19T02:26:23.342Z,0.00
2023-05-19T02:27:21.698Z,0.00
2023-05-19T02:28:21.656Z,0.00
2023-05-19T02:29:21.672Z,0.00
2023-05-19T02:30:21.636Z,0.00
2023-05-19T02:31:23.719Z,0.00
2023-05-19T02:32:21.736Z,0.00
2023-05-19T02:33:21.648Z,0.00
2023-05-19T02:34:21.598Z,0.00
2023-05-19T02:35:21.613Z,0.00
2023-05-19T02:36:21.631Z,0.00
2023-05-19T02:37:21.584Z,0.00
2023-05-19T02:38:21.643Z,0.00
2023-05-19T02:39:22.872Z,0.00
2023-05-19T02:40:21.593Z,0.00
2023-05-19T02:41:21.567Z,0.00
2023-05-19T02:42:21.528Z,0.00
2023-05-19T02:43:21.518Z,0.00
2023-05-19T02:44:23.738Z,0.00
2023-05-19T02:45:23.269Z,0.00
2023-05-19T02:46:21.537Z,0.00
2023-05-19T02:47:21.537Z,0.00
2023-05-19T02:48:21.474Z,0.00
2023-05-19T02:49:21.496Z,0.00
2023-05-19T02:50:21.456Z,0.00
2023-05-19T02:51:21.420Z,0.00
2023-05-19T02:52:23.175Z,0.00
2023-05-19T02:53:21.432Z,0.00
2023-05-19T02:54:21.396Z,0.00
2023-05-19T02:55:21.527Z,0.00
2023-05-19T02:56:21.362Z,1.00
2023-05-19T02:57:23.179Z,1.00
2023-05-19T02:58:22.271Z,1.00
2023-05-19T02:59:21.720Z,1.00
2023-05-19T03:00:21.339Z,1.00
2023-05-19T03:01:21.356Z,0.00
2023-05-19T03:02:21.401Z,0.00
2023-05-19T03:03:21.360Z,2.00
2023-05-19T03:04:21.304Z,2.00
2023-05-19T03:05:23.180Z,2.00
2023-05-19T03:06:21.273Z,2.00
2023-05-19T03:07:21.269Z,4.00
2023-05-19T03:08:21.272Z,0.00
2023-05-19T03:09:21.261Z,4.00
2023-05-19T03:10:22.724Z,4.00
2023-05-19T03:11:22.192Z,7.00
2023-05-19T03:12:21.236Z,6.00
2023-05-19T03:13:21.208Z,10.00
2023-05-19T03:14:21.188Z,9.00
2023-05-19T03:15:21.176Z,7.00
2023-05-19T03:16:21.264Z,9.00
2023-05-19T03:17:21.316Z,7.00
2023-05-19T03:18:22.334Z,16.00
2023-05-19T03:19:21.270Z,18.00
2023-05-19T03:20:21.131Z,14.00
2023-05-19T03:21:21.124Z,31.00
2023-05-19T03:22:21.118Z,29.00
2023-05-19T03:23:22.819Z,25.00
2023-05-19T03:24:21.820Z,28.00
2023-05-19T03:25:21.101Z,34.00
2023-05-19T03:26:21.082Z,39.00
2023-05-19T03:27:21.068Z,33.00
2023-05-19T03:28:21.086Z,53.00
2023-05-19T03:29:21.088Z,53.00
2023-05-19T03:30:21.110Z,62.00
2023-05-19T03:31:21.695Z,67.00
2023-05-19T03:32:21.202Z,65.00
2023-05-19T03:33:21.111Z,74.00
2023-05-19T03:34:20.989Z,81.00
2023-05-19T03:35:20.991Z,82.00
2023-05-19T03:36:22.709Z,103.00
2023-05-19T03:37:21.705Z,104.00
2023-05-19T03:38:20.930Z,113.00
2023-05-19T03:39:20.921Z,127.00
2023-05-19T03:40:20.946Z,128.00
2023-05-19T03:41:20.919Z,137.00
2023-05-19T03:42:21.729Z,147.00
2023-05-19T03:43:20.884Z,163.00
2023-05-19T03:44:20.894Z,177.00
2023-05-19T03:45:20.908Z,183.00
2023-05-19T03:46:21.052Z,198.00
2023-05-19T03:47:20.880Z,212.00
2023-05-19T03:48:21.451Z,212.00
2023-05-19T03:49:22.727Z,241.00
2023-05-19T03:50:21.744Z,261.00
2023-05-19T03:51:20.871Z,276.00
2023-05-19T03:52:20.781Z,288.00
2023-05-19T03:53:20.803Z,308.00
2023-05-19T03:54:20.783Z,331.00
2023-05-19T03:55:21.703Z,346.00
2023-05-19T03:56:20.777Z,370.00
2023-05-19T03:57:20.719Z,387.00
2023-05-19T03:58:20.858Z,406.00
2023-05-19T03:59:20.745Z,435.00
2023-05-19T04:00:20.722Z,453.00
2023-05-19T04:01:20.701Z,472.00
2023-05-19T04:02:22.293Z,497.00
2023-05-19T04:03:21.411Z,519.00
2023-05-19T04:04:20.737Z,540.00
2023-05-19T04:05:20.663Z,562.00
2023-05-19T04:06:20.636Z,579.00
2023-05-19T04:07:20.652Z,605.00
2023-05-19T04:08:21.317Z,634.00
2023-05-19T04:09:20.623Z,652.00
2023-05-19T04:10:20.620Z,669.00
2023-05-19T04:11:20.639Z,699.00
2023-05-19T04:12:21.228Z,722.00
2023-05-19T04:13:20.582Z,742.00
2023-05-19T04:14:20.589Z,775.00
2023-05-19T04:15:22.203Z,791.00
2023-05-19T04:16:21.303Z,813.00
2023-05-19T04:17:20.515Z,838.00
2023-05-19T04:18:20.519Z,864.00
2023-05-19T04:19:20.554Z,889.00
2023-05-19T04:20:20.517Z,909.00
2023-05-19T04:21:21.204Z,925.00
2023-05-19T04:22:20.477Z,951.00
2023-05-19T04:23:20.474Z,967.00
2023-05-19T04:24:20.447Z,983.00
2023-05-19T04:25:20.454Z,1011.00
2023-05-19T04:26:20.428Z,1040.00
2023-05-19T04:27:20.423Z,1062.00
2023-05-19T04:28:20.476Z,1086.00
2023-05-19T04:29:21.240Z,1096.00
2023-05-19T04:30:20.390Z,1118.00
2023-05-19T04:31:20.492Z,1142.00
2023-05-19T04:32:20.354Z,1160.00
2023-05-19T04:33:20.385Z,1190.00
2023-05-19T04:34:21.215Z,1193.00
2023-05-19T04:35:20.327Z,1221.00
2023-05-19T04:36:20.320Z,1237.00
2023-05-19T04:38:37.968Z,0.00
2023-05-19T04:39:37.945Z,1283.00
2023-05-19T04:40:38.011Z,1298.00
2023-05-19T04:41:37.921Z,1310.00
2023-05-19T04:42:37.928Z,1322.00
2023-05-19T04:43:37.917Z,1335.00
2023-05-19T04:44:37.888Z,1351.00
2023-05-19T04:45:37.899Z,1365.00
2023-05-19T04:46:37.930Z,1377.00
2023-05-19T04:47:37.892Z,1391.00
2023-05-19T04:48:37.849Z,1406.00
2023-05-19T04:49:37.843Z,1417.00
2023-05-19T04:50:37.826Z,1426.00
2023-05-19T04:51:37.882Z,1443.00
2023-05-19T04:52:37.832Z,1450.00
2023-05-19T04:53:37.798Z,1460.00
2023-05-19T04:54:37.796Z,1473.00
2023-05-19T04:55:37.773Z,1483.00
2023-05-19T04:56:37.797Z,1498.00
2023-05-19T04:57:37.758Z,1505.00
2023-05-19T04:58:38.716Z,1520.00
2023-05-19T04:59:37.742Z,1536.00
2023-05-19T05:00:37.722Z,1555.00
2023-05-19T05:01:37.814Z,1579.00
2023-05-19T05:02:37.768Z,1599.00
2023-05-19T05:03:37.760Z,1617.00
2023-05-19T05:04:37.692Z,1633.00
2023-05-19T05:05:38.379Z,1647.00
2023-05-19T05:06:37.710Z,1661.00
2023-05-19T05:07:37.715Z,1680.00
2023-05-19T05:08:37.658Z,1686.00
2023-05-19T05:09:37.644Z,1700.00
2023-05-19T05:10:37.671Z,1714.00
2023-05-19T05:11:37.640Z,1729.00
2023-05-19T05:12:38.383Z,1740.00
2023-05-19T05:13:38.391Z,1751.00
2023-05-19T05:14:37.669Z,1764.00
2023-05-19T05:15:37.592Z,1780.00
2023-05-19T05:16:37.646Z,1795.00
2023-05-19T05:17:37.731Z,1812.00
2023-05-19T05:18:38.382Z,1828.00
2023-05-19T05:19:37.527Z,1839.00
2023-05-19T05:20:37.612Z,1842.00
2023-05-19T05:21:37.508Z,1822.00
2023-05-19T05:22:37.525Z,1839.00
2023-05-19T05:23:38.373Z,1847.00
2023-05-19T05:24:37.485Z,1845.00
2023-05-19T05:25:38.967Z,1861.00
2023-05-19T05:26:38.472Z,1860.00
2023-05-19T05:27:37.496Z,1866.00
2023-05-19T05:28:37.453Z,1878.00
2023-05-19T05:29:37.452Z,1886.00
2023-05-19T05:30:37.425Z,1878.00
2023-05-19T05:31:38.389Z,1894.00
2023-05-19T05:32:37.498Z,1915.00
2023-05-19T05:33:37.469Z,1919.00
2023-05-19T05:34:37.394Z,1920.00
2023-05-19T05:35:37.375Z,1936.00
2023-05-19T05:36:37.373Z,1953.00
2023-05-19T05:37:37.361Z,1960.00
2023-05-19T05:38:38.887Z,1970.00
2023-05-19T05:39:37.903Z,1984.00
2023-05-19T05:40:37.322Z,1992.00
2023-05-19T05:41:37.418Z,2001.00
2023-05-19T05:42:37.336Z,2028.00
2023-05-19T05:43:37.327Z,2028.00
2023-05-19T05:44:37.899Z,2040.00
2023-05-19T05:45:37.340Z,2060.00
2023-05-19T05:46:37.303Z,2073.00
2023-05-19T05:47:37.267Z,2081.00
2023-05-19T05:48:37.242Z,2094.00
2023-05-19T05:49:37.222Z,2093.00
2023-05-19T05:50:37.204Z,2117.00
2023-05-19T05:51:37.949Z,2122.00
2023-05-19T05:52:37.892Z,2132.00
2023-05-19T05:53:37.215Z,2146.00
2023-05-19T05:54:37.206Z,2143.00
2023-05-19T05:55:37.160Z,2150.00
2023-05-19T05:56:37.150Z,2160.00
2023-05-19T05:57:37.905Z,2169.00
2023-05-19T05:58:37.474Z,2174.00
2023-05-19T05:59:37.107Z,2184.00
2023-05-19T06:00:37.096Z,2187.00
2023-05-19T06:01:37.135Z,2201.00
2023-05-19T06:02:37.403Z,2202.00
2023-05-19T06:03:37.165Z,2209.00
2023-05-19T06:04:37.122Z,2219.00
2023-05-19T06:05:38.013Z,2226.00
2023-05-19T06:06:37.040Z,2223.00
2023-05-19T06:07:37.074Z,2240.00
2023-05-19T06:08:37.014Z,2241.00
2023-05-19T06:09:37.012Z,2247.00
2023-05-19T06:10:37.925Z,2252.00
2023-05-19T06:11:37.013Z,2257.00
2023-05-19T06:12:36.998Z,2265.00
2023-05-19T06:13:37.936Z,2274.00
2023-05-19T06:14:36.964Z,2284.00
2023-05-19T06:15:36.978Z,2272.00
2023-05-19T06:16:36.996Z,2287.00
2023-05-19T06:17:36.976Z,2297.00
2023-05-19T06:18:36.983Z,2304.00
2023-05-19T06:19:36.909Z,2303.00
2023-05-19T06:20:36.940Z,2325.00
2023-05-19T06:21:36.915Z,2319.00
2023-05-19T06:22:36.864Z,2326.00
2023-05-19T06:23:37.412Z,2334.00
2023-05-19T06:24:38.751Z,2335.00
2023-05-19T06:25:36.854Z,2333.00
2023-05-19T06:26:39.432Z,2338.00
2023-05-19T06:27:36.875Z,2346.00
2023-05-19T06:28:36.816Z,2351.00
2023-05-19T06:29:37.018Z,2354.00
2023-05-19T06:30:36.829Z,2344.00
2023-05-19T06:31:36.909Z,2358.00
2023-05-19T06:32:36.805Z,2367.00
2023-05-19T06:33:36.806Z,2377.00
2023-05-19T06:34:37.449Z,2371.00
2023-05-19T06:35:36.753Z,2381.00
2023-05-19T06:36:37.422Z,2380.00
2023-05-19T06:37:36.737Z,2374.00
2023-05-19T06:38:36.701Z,2386.00
2023-05-19T06:39:39.058Z,2391.00
2023-05-19T06:40:36.729Z,2392.00
2023-05-19T06:41:36.695Z,2395.00
2023-05-19T06:42:36.659Z,2397.00
2023-05-19T06:43:36.655Z,2400.00
2023-05-19T06:44:39.442Z,2403.00
2023-05-19T06:45:36.665Z,2408.00
2023-05-19T06:46:36.667Z,2411.00
2023-05-19T06:47:36.644Z,2423.00
2023-05-19T06:48:36.635Z,2409.00
2023-05-19T06:49:36.736Z,2408.00
2023-05-19T06:50:36.592Z,2426.00
2023-05-19T06:51:36.577Z,2420.00
2023-05-19T06:52:38.922Z,2424.00
2023-05-19T06:53:36.568Z,2431.00
2023-05-19T06:54:36.608Z,2429.00
2023-05-19T06:55:43.883Z,2435.00
2023-05-19T06:56:37.561Z,2441.00
2023-05-19T06:57:38.567Z,2439.00
2023-05-19T06:58:38.033Z,2511.00
2023-05-19T06:59:36.518Z,2515.00
2023-05-19T07:00:36.578Z,2504.00
2023-05-19T07:01:36.487Z,2520.00
2023-05-19T07:02:36.629Z,2524.00
2023-05-19T07:03:36.514Z,2520.00
2023-05-19T07:04:36.454Z,2533.00
2023-05-19T07:05:38.918Z,2530.00
2023-05-19T07:06:36.444Z,2533.00
2023-05-19T07:07:36.439Z,2530.00
2023-05-19T07:08:36.388Z,2538.00
2023-05-19T07:09:36.410Z,2542.00
2023-05-19T07:10:38.925Z,2537.00
2023-05-19T07:11:37.932Z,2557.00
2023-05-19T07:12:36.359Z,2534.00
2023-05-19T07:13:36.372Z,2534.00
2023-05-19T07:14:36.401Z,2530.00
2023-05-19T07:15:36.347Z,2550.00
2023-05-19T07:16:36.389Z,2546.00
2023-05-19T07:17:36.310Z,2542.00
2023-05-19T07:18:38.447Z,2553.00
2023-05-19T07:19:36.283Z,2559.00
2023-05-19T07:20:36.310Z,2559.00
2023-05-19T07:21:36.257Z,2563.00
2023-05-19T07:22:36.241Z,2559.00
2023-05-19T07:23:36.344Z,2559.00
2023-05-19T07:24:37.594Z,2583.00
2023-05-19T07:25:36.217Z,2594.00
2023-05-19T07:26:36.210Z,2587.00
2023-05-19T07:27:36.206Z,2578.00
2023-05-19T07:28:36.217Z,2587.00
2023-05-19T07:29:36.179Z,2590.00
2023-05-19T07:30:36.179Z,2604.00
2023-05-19T07:31:38.158Z,2590.00
2023-05-19T07:32:36.222Z,2575.00
2023-05-19T07:33:36.152Z,2592.00
2023-05-19T07:34:36.122Z,2584.00
2023-05-19T07:35:36.113Z,2581.00
2023-05-19T07:36:38.425Z,2606.00
2023-05-19T07:37:37.429Z,2597.00
2023-05-19T07:38:36.131Z,2601.00
2023-05-19T07:39:36.073Z,2594.00
2023-05-19T07:40:36.072Z,2601.00
2023-05-19T07:41:36.591Z,2591.00
2023-05-19T07:42:36.136Z,2599.00
2023-05-19T07:43:36.082Z,2601.00
2023-05-19T07:44:37.016Z,2607.00
2023-05-19T07:45:36.026Z,2616.00
2023-05-19T07:46:36.082Z,2624.00
2023-05-19T07:47:36.026Z,2629.00
2023-05-19T07:48:35.994Z,2629.00
2023-05-19T07:49:37.954Z,2642.00
2023-05-19T07:50:37.434Z,2640.00
2023-05-19T07:51:36.150Z,2641.00
2023-05-19T07:52:35.943Z,2640.00
2023-05-19T07:53:35.921Z,2650.00
2023-05-19T07:54:35.963Z,2660.00
2023-05-19T07:55:37.432Z,2664.00
2023-05-19T07:56:36.012Z,2661.00
2023-05-19T07:57:35.980Z,2659.00
2023-05-19T07:58:35.871Z,2670.00
2023-05-19T07:59:35.943Z,2679.00
2023-05-19T08:00:35.976Z,2688.00
2023-05-19T08:01:35.852Z,2693.00
2023-05-19T08:02:37.533Z,2710.00
2023-05-19T08:03:37.102Z,2710.00
2023-05-19T08:04:35.914Z,2730.00
2023-05-19T08:05:35.810Z,2730.00
2023-05-19T08:06:35.819Z,2749.00
2023-05-19T08:07:35.774Z,2722.00
2023-05-19T08:08:36.998Z,2675.00
2023-05-19T08:09:36.432Z,2684.00
2023-05-19T08:10:35.861Z,2659.00
2023-05-19T08:11:35.742Z,2633.00
2023-05-19T08:12:35.735Z,2649.00
2023-05-19T08:13:35.712Z,2667.00
2023-05-19T08:14:35.705Z,2649.00
2023-05-19T08:15:35.740Z,2648.00
2023-05-19T08:16:36.950Z,2673.00
2023-05-19T08:17:35.732Z,2685.00
2023-05-19T08:18:35.667Z,2663.00
2023-05-19T08:19:35.651Z,2633.00
2023-05-19T08:20:35.870Z,2584.00
2023-05-19T08:21:36.987Z,2561.00
2023-05-19T08:22:36.440Z,2575.00
2023-05-19T08:23:35.599Z,2533.00
2023-05-19T08:24:35.631Z,2531.00
2023-05-19T08:25:35.639Z,2552.00
2023-05-19T08:26:37.648Z,2540.00
2023-05-19T08:27:35.578Z,2509.00
2023-05-19T08:28:37.574Z,2556.00
2023-05-19T08:29:36.449Z,2548.00
2023-05-19T08:30:35.535Z,2574.00
2023-05-19T08:31:35.562Z,2614.00
2023-05-19T08:32:35.555Z,2612.00
2023-05-19T08:33:35.584Z,2625.00
2023-05-19T08:34:36.556Z,2626.00
2023-05-19T08:35:35.565Z,2634.00
2023-05-19T08:36:35.464Z,2650.00
2023-05-19T08:37:35.468Z,2655.00
2023-05-19T08:38:35.501Z,2656.00
2023-05-19T08:39:35.459Z,2683.00
2023-05-19T08:40:35.582Z,2678.00
2023-05-19T08:41:36.575Z,2695.00
2023-05-19T08:42:36.452Z,2734.00
2023-05-19T08:43:35.398Z,2768.00
2023-05-19T08:44:35.394Z,2835.00
2023-05-19T08:45:35.533Z,2799.00
2023-05-19T08:46:35.415Z,2815.00
2023-05-19T08:47:36.524Z,2836.00
2023-05-19T08:48:35.393Z,2860.00
2023-05-19T08:49:35.326Z,2879.00
2023-05-19T08:50:35.463Z,2905.00
2023-05-19T08:51:35.328Z,2917.00
2023-05-19T08:52:35.299Z,2922.00
2023-05-19T08:53:35.306Z,2925.00
2023-05-19T08:54:35.286Z,2979.00
2023-05-19T08:55:36.035Z,2964.00
2023-05-19T08:56:35.255Z,2998.00
2023-05-19T08:57:35.321Z,3002.00
2023-05-19T08:58:35.240Z,3015.00
2023-05-19T08:59:35.299Z,3033.00
2023-05-19T09:00:37.067Z,3052.00
2023-05-19T09:02:35.259Z,3098.00
2023-05-19T09:03:35.225Z,3118.00
2023-05-19T09:04:35.268Z,3092.00
2023-05-19T09:05:35.505Z,3080.00
2023-05-19T09:06:35.240Z,3087.00
2023-05-19T09:07:36.071Z,3076.00
2023-05-19T09:08:35.187Z,3074.00
2023-05-19T09:09:35.110Z,3067.00
2023-05-19T09:10:35.124Z,3113.00
2023-05-19T09:11:35.116Z,3086.00
2023-05-19T09:12:35.088Z,3159.00
2023-05-19T09:13:35.992Z,3186.00
2023-05-19T09:14:35.066Z,3209.00
2023-05-19T09:15:35.272Z,3188.00
2023-05-19T09:16:35.101Z,3211.00
2023-05-19T09:17:35.071Z,3261.00
2023-05-19T09:18:35.044Z,3244.00
2023-05-19T09:19:35.106Z,3262.00
2023-05-19T09:20:35.010Z,3259.00
2023-05-19T09:21:35.055Z,3257.00
2023-05-19T09:22:34.970Z,3285.00
2023-05-19T09:23:34.975Z,3290.00
2023-05-19T09:24:34.986Z,3295.00
2023-05-19T09:25:35.233Z,3338.00
2023-05-19T09:26:35.538Z,3328.00
2023-05-19T09:27:34.901Z,3347.00
2023-05-19T09:28:34.912Z,3331.00
2023-05-19T09:29:34.911Z,3334.00
2023-05-19T09:30:34.913Z,3334.00
2023-05-19T09:31:35.537Z,3310.00
2023-05-19T09:32:34.937Z,3381.00
2023-05-19T09:33:34.873Z,3305.00
2023-05-19T09:34:34.840Z,3334.00
2023-05-19T09:35:35.193Z,3349.00
2023-05-19T09:36:34.853Z,3338.00
2023-05-19T09:37:34.824Z,3344.00
2023-05-19T09:38:34.794Z,3388.00
2023-05-19T09:39:35.469Z,3399.00
2023-05-19T09:40:34.791Z,3391.00
2023-05-19T09:41:34.761Z,3410.00
2023-05-19T09:42:34.794Z,3474.00
2023-05-19T09:43:34.786Z,3446.00
2023-05-19T09:44:34.757Z,3459.00
2023-05-19T09:45:34.955Z,3496.00
2023-05-19T09:46:34.887Z,3477.00
2023-05-19T09:47:34.769Z,3479.00
2023-05-19T09:48:37.083Z,3450.00
2023-05-19T09:49:34.700Z,3452.00
2023-05-19T09:50:34.677Z,3504.00
2023-05-19T09:51:34.654Z,3535.00
2023-05-19T09:52:35.480Z,3518.00
2023-05-19T09:53:34.657Z,3559.00
2023-05-19T09:54:34.649Z,3512.00
2023-05-19T09:55:34.814Z,3447.00
2023-05-19T09:56:34.620Z,3429.00
2023-05-19T09:57:34.616Z,3407.00
2023-05-19T09:58:34.618Z,3395.00
2023-05-19T09:59:34.593Z,3380.00
2023-05-19T10:00:34.954Z,3373.00
2023-05-19T10:01:36.065Z,3367.00
2023-05-19T10:02:34.574Z,3359.00
2023-05-19T10:03:34.613Z,3314.00
2023-05-19T10:04:34.640Z,3333.00
2023-05-19T10:05:35.864Z,3365.00
2023-05-19T10:06:34.506Z,3403.00
2023-05-19T10:07:34.485Z,3451.00
2023-05-19T10:08:34.511Z,3435.00
2023-05-19T10:09:34.476Z,3458.00
2023-05-19T10:10:34.464Z,3473.00
2023-05-19T10:11:34.464Z,3503.00
2023-05-19T10:12:34.450Z,3453.00
2023-05-19T10:13:34.438Z,3472.00
2023-05-19T10:14:35.555Z,3527.00
2023-05-19T10:15:40.846Z,3495.00
2023-05-19T10:16:35.441Z,3540.00
2023-05-19T10:17:34.436Z,3603.00
2023-05-19T10:18:34.436Z,3576.00
2023-05-19T10:19:34.442Z,3651.00
2023-05-19T10:20:34.816Z,3686.00
2023-05-19T10:21:34.335Z,3715.00
2023-05-19T10:22:34.359Z,3736.00
2023-05-19T10:23:34.350Z,3767.00
2023-05-19T10:24:34.310Z,3704.00
2023-05-19T10:25:34.475Z,3681.00
2023-05-19T10:26:34.288Z,3642.00
2023-05-19T10:27:36.014Z,3646.00
2023-05-19T10:28:34.297Z,3631.00
2023-05-19T10:29:34.313Z,3573.00
2023-05-19T10:30:34.259Z,3518.00
2023-05-19T10:31:34.353Z,3548.00
2023-05-19T10:32:34.366Z,3592.00
2023-05-19T10:33:34.227Z,3594.00
2023-05-19T10:34:35.513Z,3601.00
2023-05-19T10:35:34.422Z,3628.00
2023-05-19T10:36:34.297Z,3616.00
2023-05-19T10:37:34.168Z,3556.00
2023-05-19T10:38:34.185Z,3569.00
2023-05-19T10:39:34.146Z,3543.00
2023-05-19T10:40:35.992Z,3516.00
2023-05-19T10:41:34.186Z,3524.00
2023-05-19T10:42:34.129Z,3542.00
2023-05-19T10:43:34.148Z,3544.00
2023-05-19T10:44:34.093Z,3560.00
2023-05-19T10:45:34.389Z,3582.00
2023-05-19T10:46:34.142Z,3562.00
2023-05-19T10:47:34.214Z,3587.00
2023-05-19T10:48:34.064Z,3613.00
2023-05-19T10:49:34.051Z,3607.00
2023-05-19T10:50:34.073Z,3606.00
2023-05-19T10:51:34.054Z,3656.00
2023-05-19T10:52:34.107Z,3618.00
2023-05-19T10:53:34.120Z,3634.00
2023-05-19T10:54:34.004Z,3656.00
2023-05-19T10:55:34.161Z,3676.00
2023-05-19T10:56:34.049Z,3676.00
2023-05-19T10:57:33.970Z,3709.00
2023-05-19T10:58:35.710Z,3728.00
2023-05-19T10:59:34.026Z,3754.00
2023-05-19T11:00:33.957Z,3776.00
2023-05-19T11:01:34.086Z,3836.00
2023-05-19T11:02:33.939Z,3839.00
2023-05-19T11:03:33.926Z,3883.00
2023-05-19T11:04:33.990Z,3935.00
2023-05-19T11:05:36.498Z,3926.00
2023-05-19T11:06:35.498Z,3967.00
2023-05-19T11:07:33.875Z,4013.00
2023-05-19T11:08:33.877Z,4036.00
2023-05-19T11:09:39.992Z,4029.00
2023-05-19T11:10:35.498Z,4131.00
2023-05-19T11:11:35.503Z,4199.00
2023-05-19T11:12:34.506Z,4241.00
2023-05-19T11:13:33.824Z,4250.00
2023-05-19T11:14:33.798Z,4231.00
2023-05-19T11:15:34.061Z,4311.00
2023-05-19T11:16:33.806Z,4413.00
2023-05-19T11:17:35.014Z,4469.00
2023-05-19T11:18:35.560Z,4472.00
2023-05-19T11:19:35.515Z,4513.00
2023-05-19T11:20:33.766Z,4471.00
2023-05-19T11:21:33.737Z,4513.00
2023-05-19T11:22:33.698Z,4600.00
2023-05-19T11:23:35.390Z,4629.00
2023-05-19T11:24:35.548Z,4404.00
2023-05-19T11:25:34.535Z,4440.00
2023-05-19T11:26:33.654Z,4492.00
2023-05-19T11:27:33.689Z,4496.00
2023-05-19T11:28:33.647Z,4561.00
2023-05-19T11:29:34.830Z,4556.00
2023-05-19T11:30:33.608Z,4617.00
2023-05-19T11:31:35.111Z,4685.00
2023-05-19T11:32:35.093Z,4695.00
2023-05-19T11:33:33.607Z,4808.00
2023-05-19T11:34:33.569Z,4877.00
2023-05-19T11:35:35.398Z,4598.00
2023-05-19T11:36:33.558Z,4642.00
2023-05-19T11:37:35.015Z,4822.00
2023-05-19T11:38:35.005Z,4644.00
2023-05-19T11:39:33.524Z,4776.00
2023-05-19T11:40:33.517Z,4354.00
2023-05-19T11:41:33.495Z,4443.00
2023-05-19T11:42:33.551Z,4287.00
2023-05-19T11:43:33.490Z,5208.00
2023-05-19T11:44:34.041Z,4637.00
2023-05-19T11:45:33.741Z,5216.00
2023-05-19T11:46:33.482Z,4285.00
2023-05-19T11:47:42.028Z,5326.00
2023-05-19T11:48:34.426Z,5383.00
2023-05-19T11:49:33.448Z,4934.00
2023-05-19T11:50:35.013Z,5143.00
2023-05-19T11:51:34.022Z,5636.00
2023-05-19T11:52:33.394Z,6089.00
2023-05-19T11:53:35.144Z,6108.00
2023-05-19T11:54:33.353Z,6152.00
2023-05-19T11:55:33.375Z,6153.00
2023-05-19T11:56:33.409Z,6179.00
2023-05-19T11:57:33.382Z,6183.00
2023-05-19T11:58:34.048Z,6169.00
2023-05-19T11:59:34.981Z,6190.00
2023-05-19T12:00:33.302Z,6201.00
2023-05-19T12:01:33.311Z,6012.00
2023-05-19T12:02:33.387Z,5988.00
2023-05-19T12:03:34.677Z,5251.00
2023-05-19T12:04:34.067Z,5834.00
2023-05-19T12:05:36.640Z,5815.00
2023-05-19T12:06:34.371Z,5222.00
2023-05-19T12:07:33.221Z,5445.00
2023-05-19T12:08:33.199Z,6602.00
2023-05-19T12:09:34.027Z,6976.00
2023-05-19T12:10:33.187Z,7035.00
2023-05-19T12:11:33.227Z,7051.00
2023-05-19T12:12:33.173Z,7131.00
2023-05-19T12:13:33.160Z,7339.00
2023-05-19T12:14:33.156Z,6235.00
2023-05-19T12:15:33.413Z,7274.00
2023-05-19T12:16:34.618Z,7435.00
2023-05-19T12:17:34.047Z,7330.00
2023-05-19T12:18:33.103Z,7051.00
2023-05-19T12:19:33.139Z,7161.00
2023-05-19T12:20:33.112Z,7613.00
2023-05-19T12:21:34.293Z,7643.00
2023-05-19T12:22:34.024Z,7760.00
2023-05-19T12:23:33.041Z,7933.00
2023-05-19T12:24:33.063Z,7842.00
2023-05-19T12:25:33.264Z,7470.00
2023-05-19T12:26:33.016Z,7382.00
2023-05-19T12:27:34.746Z,5819.00
2023-05-19T12:28:33.019Z,5578.00